Station: Cocos Island  

  Atmospheric Gas Attenuation - ITU Rec 676-11   ----------------- dB/100km -----------------
Date Time Temp RH % AH g/m3 Dew Point Wind Direction Speed kph Gust kph Barometer mB Rainfall Since 9am 24GHz 47GHz 76GHz 122GHz 134GHz 241GHz
08/05 09:20 28.2 91 25.02 26.6 11 13 1010.5 0 53.4 50.2 103.1 273.2 310.4 1078.5
08/05 09:10 28.1 91 24.89 26.5 15 22 1010.4 0 53.1 50.0 102.6 271.7 308.6 1072.2
08/05 09:00 28.1 91 24.89 26.5 13 19 1010.4 0 53.1 50.0 102.6 271.7 308.6 1072.2
08/05 08:50 28 91 24.75 26.4 13 15 1010.1 25.4 52.8 49.7 102.0 270.1 306.6 1065.3
08/05 08:40 27.9 90 24.34 26.1 11 15 1010 25.4 52.0 48.9 100.0 264.8 300.1 1042.6
08/05 08:30 28 91 24.75 26.4 13 22 1010 25.4 52.8 49.7 102.0 270.1 306.5 1065.2
08/05 08:20 27.9 91 24.61 26.3 15 20 1009.9 25.4 52.6 49.5 101.4 268.5 304.6 1058.3
08/05 08:10 27.7 93 24.88 26.5 13 15 1009.9 25.4 53.2 50.2 103.0 272.9 310.0 1077.1
08/05 08:00 27.8 93 25.02 26.6 15 22 1010 25.4 53.5 50.4 103.6 274.5 312.0 1084.0
08/05 07:50 27.7 93 24.88 26.5 15 20 1009.8 25.4 53.2 50.2 103.0 272.9 310.0 1077.1
08/05 07:40 27.8 91 24.48 26.2 15 19 1009.7 25.4 52.3 49.3 100.8 267.0 302.8 1052.0
08/05 07:30 27.8 91 24.48 26.2 17 24 1009.7 25.4 52.3 49.3 100.8 267.0 302.8 1052.0
08/05 07:20 27.8 91 24.48 26.2 17 24 1009.6 25.4 52.3 49.3 100.8 267.0 302.7 1052.0
08/05 07:10 27.8 91 24.48 26.2 19 22 1009.6 25.4 52.3 49.3 100.8 267.0 302.7 1052.0
08/05 07:00 27.8 91 24.48 26.2 15 22 1009.6 25.4 52.3 49.3 100.8 267.0 302.7 1052.0
08/05 06:50 27.7 90 24.08 25.9 19 24 1009.4 25.4 51.5 48.5 98.9 261.8 296.4 1029.9
08/05 06:40 27.6 94 25.01 26.5 13 17 1009.4 25.4 53.5 50.5 103.8 275.0 312.6 1085.9
08/05 06:30 27.7 94 25.15 26.6 15 22 1009.5 25.4 53.8 50.7 104.4 276.6 314.5 1092.8
08/05 06:20 27.7 94 25.15 26.6 15 20 1009.4 25.4 53.8 50.7 104.4 276.6 314.5 1092.8
08/05 06:10 27.6 94 25.01 26.5 11 19 1009.3 25.4 53.5 50.5 103.8 275.0 312.5 1085.9
08/05 06:00 27.7 94 25.15 26.6 13 20 1009.4 25.4 53.8 50.7 104.4 276.6 314.5 1092.8
08/05 05:50 27.7 93 24.88 26.5 13 17 1009.3 25.4 53.2 50.1 103.0 272.8 309.9 1076.7
08/05 05:40 27.7 93 24.88 26.5 13 17 1009.4 25.4 53.2 50.1 103.0 272.9 309.9 1076.8
08/05 05:30 27.6 94 25.01 26.5 13 20 1009.5 25.4 53.5 50.5 103.8 275.1 312.6 1086.0
08/05 05:20 27.7 94 25.15 26.6 13 19 1009.4 25.4 53.8 50.7 104.4 276.6 314.5 1092.8
08/05 05:10 27.7 94 25.15 26.6 13 17 1009.3 25.4 53.8 50.7 104.4 276.6 314.5 1092.7
08/05 05:00 27.7 94 25.15 26.6 13 22 1009.3 25.4 53.8 50.7 104.4 276.6 314.5 1092.7
08/05 04:50 27.7 94 25.15 26.6 13 15 1009.1 25.4 53.8 50.7 104.4 276.6 314.5 1092.6
08/05 04:40 27.7 94 25.15 26.6 13 15 1009.1 25.4 53.8 50.7 104.4 276.6 314.5 1092.6
08/05 04:30 27.7 94 25.15 26.6 13 17 1009.1 25.4 53.8 50.7 104.4 276.6 314.5 1092.6
08/05 04:20 27.7 94 25.15 26.6 13 19 1009.1 25.4 53.8 50.7 104.4 276.6 314.5 1092.6
08/05 04:10 27.6 94 25.01 26.5 13 17 1009.3 25.4 53.5 50.5 103.8 275.0 312.5 1085.9
08/05 04:00 27.7 94 25.15 26.6 15 22 1009.4 25.4 53.8 50.7 104.4 276.6 314.5 1092.8
08/05 03:50 27.7 94 25.15 26.6 15 19 1009.4 25.4 53.8 50.7 104.4 276.6 314.5 1092.8
08/05 03:40 27.6 94 25.01 26.5 11 15 1009.5 25.4 53.5 50.5 103.8 275.1 312.6 1086.0
08/05 03:30 27.7 94 25.15 26.6 13 19 1009.7 25.4 53.7 50.7 104.4 276.7 314.6 1093.0
08/05 03:20 27.6 94 25.01 26.5 13 19 1009.7 25.4 53.5 50.5 103.8 275.1 312.6 1086.1
08/05 03:10 27.5 94 24.87 26.4 11 15 1009.8 25.4 53.2 50.3 103.3 273.5 310.7 1079.4
08/05 03:00 27.6 94 25.01 26.5 13 20 1009.9 25.4 53.5 50.5 103.9 275.1 312.6 1086.3
08/05 02:50 27.6 94 25.01 26.5 13 15 1009.7 25.4 53.5 50.5 103.8 275.1 312.6 1086.1
08/05 02:40 27.6 94 25.01 26.5 11 17 1009.9 25.4 53.5 50.5 103.9 275.1 312.6 1086.3
08/05 02:30 27.7 94 25.15 26.6 11 17 1010.2 25.4 53.7 50.7 104.5 276.8 314.7 1093.3
08/05 02:20 27.7 94 25.15 26.6 13 17 1010.3 25.4 53.7 50.7 104.5 276.8 314.7 1093.4
08/05 02:10 27.7 94 25.15 26.6 9 13 1010.5 25.4 53.7 50.8 104.5 276.8 314.7 1093.5
08/05 02:00 27.7 94 25.15 26.6 11 15 1010.7 25.4 53.7 50.8 104.5 276.9 314.8 1093.7
08/05 01:50 27.7 94 25.15 26.6 11 13 1010.8 25.4 53.7 50.8 104.5 276.9 314.8 1093.7
08/05 01:40 27.7 94 25.15 26.6 13 17 1010.9 25.4 53.7 50.8 104.5 276.9 314.8 1093.8
08/05 01:30 27.7 94 25.15 26.6 9 13 1011.2 25.4 53.7 50.8 104.6 277.0 314.9 1094.0
08/05 01:20 27.8 94 25.29 26.7 9 11 1011.1 25.4 54.0 51.0 105.1 278.5 316.8 1100.8
08/05 01:10 27.9 93 25.15 26.7 9 11 1011.2 25.4 53.7 50.7 104.3 276.2 314.0 1091.0
08/05 01:00 27.9 93 25.15 26.7 9 15 1011.4 25.4 53.7 50.7 104.3 276.2 314.0 1091.2
08/05 00:50 27.9 93 25.15 26.7 9 11 1011.4 25.4 53.7 50.7 104.3 276.2 314.0 1091.2
08/05 00:40 27.9 93 25.15 26.7 9 13 1011.4 25.4 53.7 50.7 104.3 276.2 314.0 1091.2
08/05 00:30 27.9 93 25.15 26.7 9 15 1011.6 25.4 53.7 50.7 104.3 276.3 314.1 1091.3
08/05 00:20 28 92 25.02 26.6 11 13 1011.3 25.4 53.4 50.3 103.5 274.0 311.4 1082.0
08/05 00:10 28 92 25.02 26.6 11 15 1011.4 25.4 53.4 50.3 103.5 274.1 311.4 1082.0
08/05 00:00 28 92 25.02 26.6 11 19 1011.6 25.4 53.4 50.4 103.5 274.1 311.4 1082.2
07/05 23:50 27.9 92 24.88 26.5 11 15 1011.5 25.4 53.1 50.1 102.9 272.5 309.5 1075.3
07/05 23:40 28 92 25.02 26.6 13 15 1011.6 25.4 53.4 50.4 103.5 274.1 311.4 1082.2
07/05 23:30 27.9 93 25.15 26.7 13 19 1011.7 25.4 53.7 50.7 104.3 276.3 314.1 1091.4
07/05 23:20 28.1 93 25.43 26.9 13 15 1011.6 25.4 54.3 51.1 105.5 279.4 318.0 1105.0
07/05 23:10 28 94 25.57 26.9 15 19 1011.6 25.4 54.6 51.5 106.4 281.8 320.9 1114.8
07/05 23:00 28.2 94 25.85 27.1 15 24 1011.7 25.4 55.1 52.0 107.6 285.0 324.8 1128.6
07/05 22:50 28.1 94 25.71 27 13 17 1011.6 25.4 54.9 51.7 107.0 283.4 322.8 1121.7
07/05 22:40 28.1 94 25.71 27 15 17 1011.6 25.4 54.9 51.7 107.0 283.4 322.8 1121.7
07/05 22:30 28.1 94 25.71 27 13 17 1011.7 25.4 54.9 51.7 107.0 283.4 322.8 1121.7
07/05 22:20 28.2 93 25.57 27 13 17 1011.6 25.4 54.5 51.4 106.1 281.0 320.0 1111.8
07/05 22:10 28.3 91 25.16 26.7 22 28 1011.5 25.4 53.7 50.5 103.8 274.9 312.5 1085.9
07/05 22:00 28.2 94 25.85 27.1 17 24 1011.6 25.4 55.1 52.0 107.6 285.0 324.8 1128.5
07/05 21:50 28.1 94 25.71 27 13 19 1011.5 25.4 54.9 51.7 107.0 283.4 322.8 1121.6
07/05 21:40 28.1 94 25.71 27 13 15 1011.4 25.4 54.9 51.7 107.0 283.3 322.8 1121.5
07/05 21:30 28.1 94 25.71 27 13 20 1011.4 25.4 54.9 51.7 107.0 283.3 322.8 1121.5
07/05 21:20 28 94 25.57 26.9 13 15 1011.2 25.4 54.6 51.5 106.3 281.7 320.8 1114.5
07/05 21:10 28 94 25.57 26.9 13 15 1011.1 25.4 54.6 51.5 106.3 281.7 320.8 1114.5
07/05 21:00 28.1 94 25.71 27 13 22 1011.1 25.4 54.9 51.7 106.9 283.3 322.7 1121.3
07/05 20:50 28.2 94 25.85 27.1 15 17 1010.9 25.4 55.2 51.9 107.5 284.8 324.7 1128.0
07/05 20:40 28.1 94 25.71 27 11 15 1010.8 25.4 54.9 51.7 106.9 283.2 322.7 1121.1
07/05 20:30 28.1 94 25.71 27 13 20 1010.7 25.4 54.9 51.7 106.9 283.2 322.6 1121.1
07/05 20:20 28 94 25.57 26.9 11 15 1010.5 25.4 54.6 51.5 106.3 281.6 320.6 1114.1
07/05 20:10 28.1 94 25.71 27 13 17 1010.3 25.4 54.9 51.7 106.9 283.1 322.6 1120.8
07/05 20:00 28.1 94 25.71 27 13 20 1010.3 25.4 54.9 51.7 106.9 283.1 322.6 1120.8
07/05 19:50 28.2 92 25.3 26.8 13 19 1010.1 25.4 54.0 50.7 104.5 277.0 315.1 1094.7
07/05 19:40 28.2 92 25.3 26.8 15 19 1009.9 25.4 54.0 50.7 104.5 276.9 315.0 1094.6
07/05 19:30 28.3 91 25.16 26.7 17 24 1009.9 25.4 53.7 50.4 103.7 274.6 312.2 1084.9
07/05 19:20 28.1 94 25.71 27 15 20 1009.8 25.4 54.9 51.7 106.8 283.0 322.5 1120.4
07/05 19:10 28.1 94 25.71 27 13 17 1009.7 25.4 54.9 51.6 106.8 283.0 322.5 1120.4
07/05 19:00 28.1 94 25.71 27 13 20 1009.8 25.4 54.9 51.7 106.8 283.0 322.5 1120.4
07/05 18:50 28 94 25.57 26.9 13 17 1009.7 25.4 54.6 51.4 106.2 281.4 320.5 1113.5
07/05 18:40 28.2 93 25.57 27 13 17 1009.8 25.4 54.6 51.3 105.9 280.7 319.6 1110.6
07/05 18:30 28.1 89 24.34 26.1 13 20 1009.8 25.4 52.0 48.8 99.7 264.0 299.2 1039.7
07/05 18:20 28 89 24.21 26 13 19 1009.6 25.4 51.7 48.6 99.1 262.6 297.4 1033.4
07/05 18:10 28 90 24.48 26.2 19 20 1009.5 25.4 52.3 49.1 100.5 266.3 301.9 1049.1
07/05 18:00 28.1 88 24.07 25.9 15 26 1009.5 25.4 51.4 48.2 98.3 260.3 294.6 1023.9
07/05 17:50 28.1 93 25.43 26.9 17 20 1009.4 25.4 54.3 51.0 105.3 279.0 317.6 1103.5
07/05 17:40 28.2 94 25.85 27.1 13 17 1009.3 25.4 55.2 51.9 107.4 284.5 324.3 1126.9
07/05 17:30 28.2 91 25.02 26.6 15 22 1009.4 25.4 53.4 50.1 103.0 272.9 310.2 1077.7
07/05 17:20 28.5 88 24.6 26.3 15 19 1009.4 25.4 52.5 49.1 100.4 266.1 301.8 1048.9
07/05 17:10 28.8 89 25.29 26.8 13 17 1009.3 25.4 53.9 50.3 103.6 274.4 312.2 1084.8
07/05 17:00 28.9 88 25.14 26.7 17 26 1009.4 25.4 53.6 49.9 102.7 272.0 309.2 1074.6
07/05 16:50 28.9 89 25.43 26.9 15 20 1009.4 25.4 54.2 50.5 104.2 276.0 314.1 1091.6

Last Refresh: 08-May-2026 11:03:02

Bureau of Meteorology